createdAt,value
2018-06-13T00:01:47.956Z,101442.25
2018-06-13T00:04:16.735Z,101439.52
2018-06-13T00:06:45.675Z,101446.61
2018-06-13T00:09:14.306Z,101442.12
2018-06-13T00:11:42.874Z,101443.63
2018-06-13T00:14:12.176Z,101451.27
2018-06-13T00:16:41.348Z,101442.78
2018-06-13T00:19:10.076Z,101444.72
2018-06-13T00:21:39.155Z,101436.20
2018-06-13T00:24:07.866Z,101435.39
2018-06-13T00:26:36.678Z,101442.55
2018-06-13T00:29:05.768Z,101441.31
2018-06-13T00:31:34.522Z,101435.62
2018-06-13T00:34:03.656Z,101433.82
2018-06-13T00:36:32.789Z,101442.34
2018-06-13T00:39:01.530Z,101443.05
2018-06-13T00:41:30.260Z,101449.84
2018-06-13T00:43:59.309Z,101443.28
2018-06-13T00:46:28.132Z,101447.16
2018-06-13T00:48:57.118Z,101449.77
2018-06-13T00:51:26.496Z,101437.64
2018-06-13T00:53:55.641Z,101441.03
2018-06-13T00:56:30.338Z,101438.30
2018-06-13T00:58:59.126Z,101442.18
2018-06-13T01:01:27.858Z,101450.98
2018-06-13T01:03:56.950Z,101448.33
2018-06-13T01:06:25.727Z,101450.64
2018-06-13T01:08:54.746Z,101449.91
2018-06-13T01:11:23.852Z,101446.15
2018-06-13T01:13:52.597Z,101448.03
2018-06-13T01:16:21.352Z,101441.39
2018-06-13T01:18:50.304Z,101435.19
2018-06-13T01:21:19.084Z,101440.88
2018-06-13T01:23:47.734Z,101441.69
2018-06-13T01:26:16.874Z,101438.08
2018-06-13T01:28:45.621Z,101434.12
2018-06-13T01:31:14.208Z,101433.33
2018-06-13T01:33:43.658Z,101429.27
2018-06-13T01:36:12.282Z,101435.05
2018-06-13T01:38:40.873Z,101430.28
2018-06-13T01:41:10.036Z,101421.13
2018-06-13T01:43:38.789Z,101424.43
2018-06-13T01:46:07.563Z,101418.81
2018-06-13T01:48:36.699Z,101410.72
2018-06-13T01:51:05.468Z,101417.00
2018-06-13T01:53:34.327Z,101412.95
2018-06-13T01:56:03.267Z,101416.64
2018-06-13T01:58:32.328Z,101417.27
2018-06-13T02:01:01.160Z,101412.22
2018-06-13T02:03:30.567Z,101422.48
2018-06-13T02:05:59.303Z,101420.31
2018-06-13T02:08:28.052Z,101426.73
2018-06-13T02:10:57.106Z,101422.05
2018-06-13T02:13:25.911Z,101419.88
2018-06-13T02:15:54.674Z,101422.33
2018-06-13T02:18:23.822Z,101418.20
2018-06-13T02:20:52.572Z,101418.31
2018-06-13T02:23:21.338Z,101410.84
2018-06-13T02:25:50.436Z,101418.20
2018-06-13T02:28:19.014Z,101424.66
2018-06-13T02:30:47.776Z,101417.57
2018-06-13T02:33:17.064Z,101409.34
2018-06-13T02:35:45.792Z,101416.70
2018-06-13T02:38:14.919Z,101415.91
2018-06-13T02:40:44.049Z,101412.45
2018-06-13T02:43:12.796Z,101414.47
2018-06-13T02:45:48.080Z,101417.30
2018-06-13T02:48:16.871Z,101413.09
2018-06-13T02:50:45.630Z,101410.05
2018-06-13T02:53:14.688Z,101411.59
2018-06-13T02:55:43.327Z,101401.12
2018-06-13T02:58:12.080Z,101408.84
2018-06-13T03:00:41.207Z,101405.73
2018-06-13T03:03:10.244Z,101408.64
2018-06-13T03:05:39.064Z,101411.66
2018-06-13T03:08:07.966Z,101419.14
2018-06-13T03:10:36.981Z,101408.68
2018-06-13T03:13:05.768Z,101405.99
2018-06-13T03:15:35.191Z,101405.73
2018-06-13T03:18:04.005Z,101398.80
2018-06-13T03:20:32.813Z,101395.93
2018-06-13T03:23:01.853Z,101399.58
2018-06-13T03:25:30.645Z,101399.94
2018-06-13T03:27:59.393Z,101401.55
2018-06-13T03:30:28.299Z,101398.52
2018-06-13T03:32:57.044Z,101399.61
2018-06-13T03:35:25.796Z,101405.56
2018-06-13T03:37:54.926Z,101412.19
2018-06-13T03:40:23.676Z,101407.98
2018-06-13T03:42:52.404Z,101410.72
2018-06-13T03:45:27.328Z,101406.16
2018-06-13T03:47:56.146Z,101409.55
2018-06-13T03:50:25.210Z,101411.77
2018-06-13T03:52:54.293Z,101413.36
2018-06-13T03:55:23.064Z,101405.30
2018-06-13T03:57:51.803Z,101403.44
2018-06-13T04:00:20.988Z,101412.21
2018-06-13T04:02:49.722Z,101404.80
2018-06-13T04:05:18.300Z,101405.19
2018-06-13T04:07:47.241Z,101409.09
2018-06-13T04:10:15.988Z,101411.48
2018-06-13T04:12:44.798Z,101414.89
2018-06-13T04:15:13.831Z,101409.67
2018-06-13T04:17:42.568Z,101410.98
2018-06-13T04:20:11.414Z,101406.36
2018-06-13T04:22:40.511Z,101406.11
2018-06-13T04:25:09.331Z,101412.72
2018-06-13T04:27:38.087Z,101406.73
2018-06-13T04:30:07.330Z,101410.80
2018-06-13T04:32:35.959Z,101407.66
2018-06-13T04:35:04.741Z,101412.77
2018-06-13T04:37:33.881Z,101416.28
2018-06-13T04:40:02.637Z,101422.25
2018-06-13T04:42:31.396Z,101414.02
2018-06-13T04:45:00.544Z,101417.68
2018-06-13T04:47:29.282Z,101418.20
2018-06-13T04:49:58.092Z,101417.82
2018-06-13T04:52:27.132Z,101414.71
2018-06-13T04:54:55.750Z,101409.64
2018-06-13T04:57:24.632Z,101413.99
2018-06-13T04:59:53.485Z,101409.94
2018-06-13T05:02:22.279Z,101409.50
2018-06-13T05:04:51.017Z,101414.68
2018-06-13T05:07:19.959Z,101418.25
2018-06-13T05:09:48.703Z,101410.53
2018-06-13T05:12:17.708Z,101413.82
2018-06-13T05:14:46.887Z,101410.53
2018-06-13T05:17:15.636Z,101421.92
2018-06-13T05:19:44.391Z,101419.34
2018-06-13T05:22:13.530Z,101419.08
2018-06-13T05:24:42.287Z,101420.04
2018-06-13T05:27:10.934Z,101421.56
2018-06-13T05:29:39.882Z,101423.95
2018-06-13T05:32:08.627Z,101418.20
2018-06-13T05:34:37.371Z,101416.49
2018-06-13T05:37:06.556Z,101417.50
2018-06-13T05:39:35.190Z,101421.25
2018-06-13T05:42:03.969Z,101421.42
2018-06-13T05:44:33.334Z,101424.74
2018-06-13T05:47:02.103Z,101424.05
2018-06-13T05:49:30.859Z,101430.24
2018-06-13T05:51:59.967Z,101437.36
2018-06-13T05:54:28.711Z,101443.03
2018-06-13T05:56:57.488Z,101440.44
2018-06-13T05:59:26.424Z,101436.54
2018-06-13T06:01:55.416Z,101442.56
2018-06-13T06:04:24.204Z,101443.69
2018-06-13T06:06:53.402Z,101442.27
2018-06-13T06:09:21.999Z,101444.88
2018-06-13T06:11:50.562Z,101445.35
2018-06-13T06:14:19.738Z,101443.28
2018-06-13T06:16:48.513Z,101446.55
2018-06-13T06:19:17.255Z,101444.45
2018-06-13T06:21:46.047Z,101449.68
2018-06-13T06:24:14.689Z,101446.59
2018-06-13T06:26:43.428Z,101447.77
2018-06-13T06:29:12.461Z,101448.09
2018-06-13T06:31:41.219Z,101454.24
2018-06-13T06:34:09.963Z,101468.75
2018-06-13T06:36:39.054Z,101473.87
2018-06-13T06:39:08.343Z,101483.57
2018-06-13T06:41:37.149Z,101484.33
2018-06-13T06:44:06.239Z,101495.31
2018-06-13T06:46:35.006Z,101493.69
2018-06-13T06:49:03.764Z,101502.37
2018-06-13T06:51:32.869Z,101500.31
2018-06-13T06:54:01.660Z,101506.05
2018-06-13T06:56:30.428Z,101506.53
2018-06-13T06:58:59.378Z,101511.98
2018-06-13T07:01:28.136Z,101506.41
2018-06-13T07:03:56.872Z,101500.21
2018-06-13T07:06:25.952Z,101505.33
2018-06-13T07:08:54.696Z,101507.78
2018-06-13T07:11:23.278Z,101501.21
2018-06-13T07:13:52.327Z,101502.16
2018-06-13T07:16:21.078Z,101495.56
2018-06-13T07:18:49.864Z,101495.70
2018-06-13T07:21:19.003Z,101495.94
2018-06-13T07:23:47.748Z,101496.67
2018-06-13T07:26:16.791Z,101495.45
2018-06-13T07:28:46.514Z,101502.11
2018-06-13T07:31:15.316Z,101502.34
2018-06-13T07:33:44.379Z,101498.82
2018-06-13T07:36:13.488Z,101501.11
2018-06-13T07:38:42.240Z,101502.59
2018-06-13T07:41:11.219Z,101501.11
2018-06-13T07:43:40.229Z,101502.98
2018-06-13T07:46:09.082Z,101510.38
2018-06-13T07:48:37.822Z,101507.98
2018-06-13T07:51:07.238Z,101510.03
2018-06-13T07:53:35.986Z,101514.03
2018-06-13T07:56:04.906Z,101509.97
2018-06-13T07:58:34.942Z,101508.16
2018-06-13T08:01:03.751Z,101506.73
2018-06-13T08:03:32.507Z,101509.64
2018-06-13T08:06:01.462Z,101511.59
2018-06-13T08:08:30.381Z,101505.84
2018-06-13T08:10:59.342Z,101509.26
2018-06-13T08:13:28.928Z,101508.34
2018-06-13T08:15:57.712Z,101517.11
2018-06-13T08:18:26.496Z,101519.84
2018-06-13T08:20:55.704Z,101512.53
2018-06-13T08:23:24.479Z,101519.41
2018-06-13T08:25:53.233Z,101524.11
2018-06-13T08:28:22.959Z,101521.86
2018-06-13T08:30:51.720Z,101522.16
2018-06-13T08:33:20.520Z,101529.03
2018-06-13T08:35:49.668Z,101525.97
2018-06-13T08:38:18.431Z,101529.35
2018-06-13T08:40:47.213Z,101520.34
2018-06-13T08:43:16.581Z,101533.19
2018-06-13T08:45:45.620Z,101528.58
2018-06-13T08:48:14.364Z,101531.19
2018-06-13T08:50:43.471Z,101518.08
2018-06-13T08:53:12.313Z,101520.53
2018-06-13T08:55:41.210Z,101529.59
2018-06-13T08:58:10.206Z,101531.58
2018-06-13T09:00:38.991Z,101532.08
2018-06-13T09:03:07.748Z,101536.70
2018-06-13T09:05:36.883Z,101535.46
2018-06-13T09:08:05.644Z,101539.23
2018-06-13T09:10:34.723Z,101542.45
2018-06-13T09:13:03.871Z,101537.84
2018-06-13T09:15:32.637Z,101537.39
2018-06-13T09:18:01.717Z,101540.56
2018-06-13T09:20:31.060Z,101544.77
2018-06-13T09:22:59.865Z,101540.45
2018-06-13T09:25:28.637Z,101547.31
2018-06-13T09:27:57.791Z,101552.11
2018-06-13T09:30:26.704Z,101538.16
2018-06-13T09:32:55.484Z,101536.05
2018-06-13T09:35:24.715Z,101540.30
2018-06-13T09:37:53.523Z,101539.50
2018-06-13T09:40:22.291Z,101544.66
2018-06-13T09:42:51.395Z,101544.23
2018-06-13T09:45:20.174Z,101552.39
2018-06-13T09:47:48.820Z,101551.68
2018-06-13T09:50:19.507Z,101542.40
2018-06-13T09:52:48.290Z,101553.34
2018-06-13T09:55:17.070Z,101556.77
2018-06-13T09:57:46.184Z,101551.05
2018-06-13T10:00:20.656Z,101560.88
2018-06-13T10:02:49.705Z,101564.82
2018-06-13T10:05:18.467Z,101571.98
2018-06-13T10:07:47.213Z,101567.23
2018-06-13T10:10:16.374Z,101570.23
2018-06-13T10:12:45.479Z,101568.39
2018-06-13T10:15:14.232Z,101565.77
2018-06-13T10:17:43.028Z,101564.40
2018-06-13T10:20:12.292Z,101570.64
2018-06-13T10:22:41.117Z,101576.36
2018-06-13T10:25:10.249Z,101578.23
2018-06-13T10:27:40.861Z,101583.23
2018-06-13T10:30:09.685Z,101581.48
2018-06-13T10:32:38.848Z,101582.28
2018-06-13T10:35:07.936Z,101578.36
2018-06-13T10:37:36.742Z,101573.85
2018-06-13T10:40:06.452Z,101585.65
2018-06-13T10:42:35.228Z,101578.94
2018-06-13T10:45:04.093Z,101597.77
2018-06-13T10:47:33.238Z,101593.78
2018-06-13T10:50:01.991Z,101590.23
2018-06-13T10:52:30.739Z,101589.44
2018-06-13T10:54:59.812Z,101592.82
2018-06-13T10:57:28.588Z,101594.91
2018-06-13T10:59:57.386Z,101587.74
2018-06-13T11:02:26.831Z,101595.92
2018-06-13T11:04:55.600Z,101602.77
2018-06-13T11:07:24.345Z,101609.34
2018-06-13T11:09:53.778Z,101609.00
2018-06-13T11:12:22.419Z,101604.36
2018-06-13T11:14:51.185Z,101610.78
2018-06-13T11:17:21.084Z,101606.91
2018-06-13T11:19:49.851Z,101612.62
2018-06-13T11:22:18.611Z,101609.59
2018-06-13T11:24:47.856Z,101606.36
2018-06-13T11:27:16.628Z,101603.70
2018-06-13T11:29:45.396Z,101603.29
2018-06-13T11:32:14.531Z,101598.98
2018-06-13T11:34:43.347Z,101593.65
2018-06-13T11:37:12.168Z,101602.66
2018-06-13T11:39:41.154Z,101593.30
2018-06-13T11:42:09.758Z,101594.40
2018-06-13T11:44:38.504Z,101585.16
2018-06-13T11:47:07.476Z,101598.53
2018-06-13T11:49:36.102Z,101593.92
2018-06-13T11:52:04.932Z,101599.67
2018-06-13T11:54:34.048Z,101599.90
2018-06-13T11:57:02.832Z,101588.87
2018-06-13T11:59:31.600Z,101591.70
2018-06-13T12:02:00.620Z,101591.16
2018-06-13T12:04:29.367Z,101589.37
2018-06-13T12:06:58.113Z,101591.48
2018-06-13T12:09:27.191Z,101591.00
2018-06-13T12:11:55.947Z,101592.45
2018-06-13T12:14:25.026Z,101596.03
2018-06-13T12:16:53.978Z,101599.02
2018-06-13T12:19:22.737Z,101599.52
2018-06-13T12:21:51.499Z,101605.29
2018-06-13T12:24:20.647Z,101605.25
2018-06-13T12:26:49.309Z,101608.98
2018-06-13T12:29:18.084Z,101605.20
2018-06-13T12:31:47.228Z,101601.42
2018-06-13T12:34:16.187Z,101601.52
2018-06-13T12:36:45.069Z,101595.27
2018-06-13T12:39:14.096Z,101591.08
2018-06-13T12:41:42.863Z,101592.62
2018-06-13T12:44:11.626Z,101585.84
2018-06-13T12:46:40.575Z,101586.66
2018-06-13T12:49:10.252Z,101583.72
2018-06-13T12:51:39.076Z,101583.05
2018-06-13T12:54:08.016Z,101587.44
2018-06-13T12:56:36.642Z,101596.77
2018-06-13T12:59:05.422Z,101591.77
2018-06-13T13:01:34.512Z,101588.14
2018-06-13T13:04:03.356Z,101589.70
2018-06-13T13:06:32.125Z,101593.45
2018-06-13T13:09:01.079Z,101592.52
2018-06-13T13:11:29.846Z,101597.70
2018-06-13T13:13:58.762Z,101594.55
2018-06-13T13:16:27.743Z,101596.95
2018-06-13T13:18:56.345Z,101594.58
2018-06-13T13:21:25.375Z,101596.14
2018-06-13T13:23:54.475Z,101585.27
2018-06-13T13:26:23.268Z,101594.34
2018-06-13T13:28:52.430Z,101595.70
2018-06-13T13:31:21.490Z,101587.47
2018-06-13T13:33:50.257Z,101596.02
2018-06-13T13:36:19.030Z,101592.13
2018-06-13T13:38:48.245Z,101590.76
2018-06-13T13:41:17.059Z,101585.63
2018-06-13T13:43:45.896Z,101592.53
2018-06-13T13:46:21.344Z,101602.64
2018-06-13T13:48:50.099Z,101604.27
2018-06-13T13:51:18.899Z,101603.68
2018-06-13T13:53:47.962Z,101601.83
2018-06-13T13:56:16.723Z,101609.89
2018-06-13T13:58:45.777Z,101606.57
2018-06-13T14:01:14.929Z,101611.60
2018-06-13T14:03:44.091Z,101606.16
2018-06-13T14:06:12.839Z,101599.30
2018-06-13T14:08:41.900Z,101595.30
2018-06-13T14:11:10.774Z,101600.19
2018-06-13T14:13:39.532Z,101600.91
2018-06-13T14:16:08.425Z,101606.28
2018-06-13T14:18:37.191Z,101604.76
2018-06-13T14:21:05.960Z,101601.97
2018-06-13T14:23:34.897Z,101601.90
2018-06-13T14:26:03.711Z,101601.22
2018-06-13T14:28:32.525Z,101607.38
2018-06-13T14:31:01.500Z,101604.13
2018-06-13T14:33:30.308Z,101601.70
2018-06-13T14:35:59.423Z,101605.55
2018-06-13T14:38:28.931Z,101603.63
2018-06-13T14:40:57.747Z,101606.70
2018-06-13T14:43:26.863Z,101605.00
2018-06-13T14:46:01.822Z,101602.56
2018-06-13T14:48:30.670Z,101602.05
2018-06-13T14:50:59.507Z,101606.91
2018-06-13T14:53:28.568Z,101610.89
2018-06-13T14:56:02.731Z,101615.40
2018-06-13T14:58:31.940Z,101612.85
2018-06-13T15:01:00.829Z,101618.91
2018-06-13T15:03:29.589Z,101620.31
2018-06-13T15:05:59.059Z,101630.59
2018-06-13T15:10:55.739Z,101628.61
2018-06-13T15:13:24.899Z,101620.38
2018-06-13T15:15:53.663Z,101617.03
2018-06-13T15:18:22.422Z,101620.89
2018-06-13T15:20:51.251Z,101611.06
2018-06-13T15:23:20.007Z,101610.78
2018-06-13T15:25:48.814Z,101607.69
2018-06-13T15:28:21.947Z,101612.63
2018-06-13T15:30:50.875Z,101615.66
2018-06-13T15:33:19.651Z,101616.76
2018-06-13T15:35:48.752Z,101616.59
2018-06-13T15:38:17.562Z,101615.22
2018-06-13T15:40:46.403Z,101613.58
2018-06-13T15:43:15.463Z,101615.19
2018-06-13T15:45:44.236Z,101614.68
2018-06-13T15:48:13.388Z,101615.14
2018-06-13T15:50:42.454Z,101615.20
2018-06-13T15:53:11.595Z,101614.64
2018-06-13T15:55:40.663Z,101608.15
2018-06-13T15:58:09.747Z,101606.98
2018-06-13T16:00:38.551Z,101615.12
2018-06-13T16:03:07.850Z,101608.70
2018-06-13T16:05:36.680Z,101609.95
2018-06-13T16:08:05.532Z,101622.89
2018-06-13T16:10:34.361Z,101617.79
2018-06-13T16:13:03.413Z,101623.98
2018-06-13T16:15:32.055Z,101616.08
2018-06-13T16:18:00.816Z,101614.81
2018-06-13T16:20:29.641Z,101612.78
2018-06-13T16:22:58.401Z,101617.09
2018-06-13T16:25:27.099Z,101623.63
2018-06-13T16:27:55.968Z,101618.69
2018-06-13T16:30:24.758Z,101624.45
2018-06-13T16:32:53.516Z,101627.08
2018-06-13T16:35:22.335Z,101624.22
2018-06-13T16:37:51.432Z,101638.46
2018-06-13T16:40:20.532Z,101638.55
2018-06-13T16:42:49.885Z,101631.45
2018-06-13T16:45:18.694Z,101627.00
2018-06-13T16:47:47.805Z,101633.23
2018-06-13T16:50:33.449Z,101629.52
2018-06-13T16:53:11.676Z,101630.70
2018-06-13T16:55:40.477Z,101647.03
2018-06-13T16:58:09.222Z,101643.70
2018-06-13T17:00:37.818Z,101643.64
2018-06-13T17:03:08.141Z,101647.56
2018-06-13T17:05:36.900Z,101646.54
2018-06-13T17:08:05.739Z,101643.37
2018-06-13T17:10:34.680Z,101651.75
2018-06-13T17:13:03.429Z,101658.14
2018-06-13T17:15:32.320Z,101657.45
2018-06-13T17:18:01.528Z,101666.63
2018-06-13T17:20:30.316Z,101668.89
2018-06-13T17:22:59.078Z,101648.67
2018-06-13T17:25:28.207Z,101655.72
2018-06-13T17:27:57.038Z,101666.24
2018-06-13T17:30:25.784Z,101655.53
2018-06-13T17:32:54.868Z,101662.95
2018-06-13T17:35:23.632Z,101661.02
2018-06-13T17:37:52.303Z,101653.85
2018-06-13T17:40:21.474Z,101667.33
2018-06-13T17:42:50.241Z,101669.88
2018-06-13T17:45:19.036Z,101680.70
2018-06-13T17:47:48.148Z,101686.90
2018-06-13T17:50:16.918Z,101689.93
2018-06-13T17:52:45.716Z,101685.03
2018-06-13T17:55:14.828Z,101685.15
2018-06-13T17:57:43.604Z,101689.94
2018-06-13T18:00:12.352Z,101693.61
2018-06-13T18:02:40.987Z,101692.95
2018-06-13T18:05:09.840Z,101694.53
2018-06-13T18:07:38.878Z,101703.18
2018-06-13T18:10:08.075Z,101698.70
2018-06-13T18:12:36.861Z,101701.34
2018-06-13T18:15:06.127Z,101703.91
2018-06-13T18:17:35.280Z,101701.57
2018-06-13T18:20:04.742Z,101708.42
2018-06-13T18:22:33.571Z,101712.20
2018-06-13T18:25:02.447Z,101712.92
2018-06-13T18:27:31.256Z,101715.67
2018-06-13T18:30:00.082Z,101708.69
2018-06-13T18:32:28.891Z,101709.33
2018-06-13T18:34:57.723Z,101708.55
2018-06-13T18:37:26.919Z,101707.88
2018-06-13T18:39:56.044Z,101703.17
2018-06-13T18:42:24.884Z,101709.47
2018-06-13T18:44:53.675Z,101711.45
2018-06-13T18:47:22.895Z,101709.74
2018-06-13T18:49:51.907Z,101712.21
2018-06-13T18:52:20.653Z,101716.88
2018-06-13T18:54:49.599Z,101725.42
2018-06-13T18:57:18.321Z,101722.70
2018-06-13T18:59:47.195Z,101732.83
2018-06-13T19:02:16.143Z,101736.61
2018-06-13T19:04:45.148Z,101740.94
2018-06-13T19:07:14.527Z,101735.66
2018-06-13T19:09:43.328Z,101740.48
2018-06-13T19:12:12.114Z,101737.33
2018-06-13T19:14:40.856Z,101737.33
2018-06-13T19:17:09.470Z,101738.50
2018-06-13T19:19:38.335Z,101737.81
2018-06-13T19:22:07.061Z,101739.59
2018-06-13T19:24:36.127Z,101739.40
2018-06-13T19:27:04.892Z,101738.83
2018-06-13T19:29:33.614Z,101737.39
2018-06-13T19:32:02.444Z,101744.27
2018-06-13T19:34:31.491Z,101742.88
2018-06-13T19:37:00.227Z,101745.77
2018-06-13T19:39:29.040Z,101743.59
2018-06-13T19:41:58.114Z,101749.63
2018-06-13T19:44:26.846Z,101757.17
2018-06-13T19:46:59.943Z,101760.69
2018-06-13T19:49:29.031Z,101767.16
2018-06-13T19:51:57.616Z,101762.94
2018-06-13T19:54:31.871Z,101769.30
2018-06-13T19:57:00.837Z,101762.80
2018-06-13T19:59:29.576Z,101778.01
2018-06-13T20:01:58.667Z,101787.53
2018-06-13T20:04:32.995Z,101788.70
2018-06-13T20:07:02.111Z,101787.98
2018-06-13T20:09:30.844Z,101780.59
2018-06-13T20:12:05.043Z,101779.84
2018-06-13T20:14:39.675Z,101781.88
2018-06-13T20:17:14.344Z,101780.09
2018-06-13T20:19:43.550Z,101782.77
2018-06-13T20:22:12.308Z,101790.03
2018-06-13T20:24:45.563Z,101783.17
2018-06-13T20:27:19.963Z,101780.05
2018-06-13T20:29:54.308Z,101774.35
2018-06-13T20:32:23.088Z,101773.99
2018-06-13T20:34:52.160Z,101768.54
2018-06-13T20:37:20.994Z,101775.76
2018-06-13T20:39:49.654Z,101778.73
2018-06-13T20:42:18.567Z,101776.88
2018-06-13T20:44:47.783Z,101780.30
2018-06-13T20:47:16.517Z,101783.78
2018-06-13T20:49:45.544Z,101781.38
2018-06-13T20:52:14.604Z,101780.38
2018-06-13T20:54:43.571Z,101776.74
2018-06-13T20:57:12.305Z,101776.25
2018-06-13T20:59:41.518Z,101770.82
2018-06-13T21:02:10.304Z,101775.22
2018-06-13T21:04:39.019Z,101775.50
2018-06-13T21:07:07.963Z,101775.84
2018-06-13T21:09:36.996Z,101766.75
2018-06-13T21:12:05.634Z,101774.20
2018-06-13T21:14:34.637Z,101764.42
2018-06-13T21:17:03.412Z,101755.03
2018-06-13T21:19:32.139Z,101762.09
2018-06-13T21:22:01.419Z,101764.36
2018-06-13T21:24:31.287Z,101774.78
2018-06-13T21:27:00.073Z,101783.42
2018-06-13T21:29:29.118Z,101781.66
2018-06-13T21:31:57.855Z,101775.06
2018-06-13T21:34:26.704Z,101776.30
2018-06-13T21:36:57.326Z,101776.63
2018-06-13T21:39:26.148Z,101775.02
2018-06-13T21:41:54.891Z,101767.50
2018-06-13T21:44:23.900Z,101776.29
2018-06-13T21:46:52.661Z,101773.27
2018-06-13T21:49:21.418Z,101769.31
2018-06-13T21:51:50.392Z,101770.11
2018-06-13T21:54:19.128Z,101770.27
2018-06-13T21:56:47.880Z,101771.16
2018-06-13T21:59:16.946Z,101771.59
2018-06-13T22:01:46.008Z,101768.45
2018-06-13T22:04:15.104Z,101774.77
2018-06-13T22:06:44.032Z,101783.49
2018-06-13T22:09:12.750Z,101780.49
2018-06-13T22:11:47.451Z,101764.20
2018-06-13T22:14:16.078Z,101775.20
2018-06-13T22:16:44.812Z,101776.72
2018-06-13T22:19:13.795Z,101768.16
2018-06-13T22:21:42.537Z,101775.84
2018-06-13T22:24:11.712Z,101764.30
2018-06-13T22:26:41.014Z,101760.67
2018-06-13T22:29:09.758Z,101763.32
2018-06-13T22:31:38.535Z,101755.23
2018-06-13T22:34:07.478Z,101754.51
2018-06-13T22:36:36.671Z,101747.03
2018-06-13T22:39:10.189Z,101751.38
2018-06-13T22:41:38.922Z,101756.92
2018-06-13T22:44:07.534Z,101752.04
2018-06-13T22:46:37.028Z,101747.63
2018-06-13T22:49:05.785Z,101756.24
2018-06-13T22:51:34.576Z,101746.67
2018-06-13T22:54:03.380Z,101742.42
2018-06-13T22:56:32.480Z,101746.87
2018-06-13T22:59:01.046Z,101750.84
2018-06-13T23:01:30.212Z,101746.95
2018-06-13T23:03:58.956Z,101740.62
2018-06-13T23:06:27.523Z,101741.34
2018-06-13T23:08:56.482Z,101738.66
2018-06-13T23:11:25.215Z,101739.41
2018-06-13T23:13:54.028Z,101738.53
2018-06-13T23:16:23.563Z,101736.58
2018-06-13T23:18:52.625Z,101732.49
2018-06-13T23:21:21.376Z,101730.11
2018-06-13T23:23:50.303Z,101735.78
2018-06-13T23:26:19.088Z,101732.20
2018-06-13T23:28:47.880Z,101725.64
2018-06-13T23:31:16.906Z,101732.17
2018-06-13T23:33:45.646Z,101728.04
2018-06-13T23:36:14.396Z,101720.45
2018-06-13T23:38:43.594Z,101720.02
2018-06-13T23:41:12.328Z,101732.70
2018-06-13T23:43:40.898Z,101721.89
2018-06-13T23:46:16.007Z,101718.94
2018-06-13T23:48:44.653Z,101721.23
2018-06-13T23:51:13.388Z,101719.92
2018-06-13T23:53:42.484Z,101718.80
2018-06-13T23:56:11.215Z,101724.76
2018-06-13T23:58:39.787Z,101722.63
